sensor_id;sensor_type;location;lat;lon;timestamp;temperature;humidity
12225;DHT22;6175;50.956;11.064;2022-12-07T00:01:18;1.50;99.90
12225;DHT22;6175;50.956;11.064;2022-12-07T00:03:47;1.50;99.90
12225;DHT22;6175;50.956;11.064;2022-12-07T00:06:16;1.50;99.90
12225;DHT22;6175;50.956;11.064;2022-12-07T00:08:45;1.50;99.90
12225;DHT22;6175;50.956;11.064;2022-12-07T00:11:14;1.40;99.90
12225;DHT22;6175;50.956;11.064;2022-12-07T00:16:11;1.40;99.90
12225;DHT22;6175;50.956;11.064;2022-12-07T00:21:07;1.30;99.90
12225;DHT22;6175;50.956;11.064;2022-12-07T00:26:07;1.40;99.90
12225;DHT22;6175;50.956;11.064;2022-12-07T00:28:34;1.30;99.90
12225;DHT22;6175;50.956;11.064;2022-12-07T00:31:04;1.30;99.90
12225;DHT22;6175;50.956;11.064;2022-12-07T00:33:31;1.30;99.90
12225;DHT22;6175;50.956;11.064;2022-12-07T00:35:59;1.30;99.90
12225;DHT22;6175;50.956;11.064;2022-12-07T00:38:28;1.30;99.90
12225;DHT22;6175;50.956;11.064;2022-12-07T00:40:57;1.20;99.90
12225;DHT22;6175;50.956;11.064;2022-12-07T00:43:26;1.20;99.90
12225;DHT22;6175;50.956;11.064;2022-12-07T00:45:54;1.30;99.90
12225;DHT22;6175;50.956;11.064;2022-12-07T00:48:22;1.30;99.90
12225;DHT22;6175;50.956;11.064;2022-12-07T00:50:49;1.30;99.90
12225;DHT22;6175;50.956;11.064;2022-12-07T00:55:44;1.40;99.90
12225;DHT22;6175;50.956;11.064;2022-12-07T01:00:41;1.50;99.90
12225;DHT22;6175;50.956;11.064;2022-12-07T01:03:10;1.40;99.90
12225;DHT22;6175;50.956;11.064;2022-12-07T01:15:27;1.70;99.90
12225;DHT22;6175;50.956;11.064;2022-12-07T01:17:55;1.70;99.90
12225;DHT22;6175;50.956;11.064;2022-12-07T01:30:12;1.50;99.90
12225;DHT22;6175;50.956;11.064;2022-12-07T01:35:08;1.50;99.90
12225;DHT22;6175;50.956;11.064;2022-12-07T01:40:04;1.60;99.90
12225;DHT22;6175;50.956;11.064;2022-12-07T01:48:11;1.60;99.90
12225;DHT22;6175;50.956;11.064;2022-12-07T01:50:43;1.60;99.90
12225;DHT22;6175;50.956;11.064;2022-12-07T01:53:12;1.60;99.90
12225;DHT22;6175;50.956;11.064;2022-12-07T01:55:42;1.70;99.90
12225;DHT22;6175;50.956;11.064;2022-12-07T01:58:11;1.70;99.90
12225;DHT22;6175;50.956;11.064;2022-12-07T02:00:39;1.70;99.90
12225;DHT22;6175;50.956;11.064;2022-12-07T02:03:10;1.60;99.90
12225;DHT22;6175;50.956;11.064;2022-12-07T02:05:41;1.70;99.90
12225;DHT22;6175;50.956;11.064;2022-12-07T02:08:11;1.70;99.90
12225;DHT22;6175;50.956;11.064;2022-12-07T02:13:08;1.80;99.90
12225;DHT22;6175;50.956;11.064;2022-12-07T02:15:53;1.80;99.90
12225;DHT22;6175;50.956;11.064;2022-12-07T02:18:31;1.80;99.90
12225;DHT22;6175;50.956;11.064;2022-12-07T02:21:08;1.80;99.90
12225;DHT22;6175;50.956;11.064;2022-12-07T02:23:52;1.80;99.90
12225;DHT22;6175;50.956;11.064;2022-12-07T02:29:35;1.90;99.90
12225;DHT22;6175;50.956;11.064;2022-12-07T02:32:10;1.90;99.90
12225;DHT22;6175;50.956;11.064;2022-12-07T02:34:44;1.90;99.90
12225;DHT22;6175;50.956;11.064;2022-12-07T02:37:21;1.90;99.90
12225;DHT22;6175;50.956;11.064;2022-12-07T02:39:55;2.00;99.90
12225;DHT22;6175;50.956;11.064;2022-12-07T02:42:28;2.00;99.90
12225;DHT22;6175;50.956;11.064;2022-12-07T02:45:00;2.00;99.90
12225;DHT22;6175;50.956;11.064;2022-12-07T02:47:28;2.10;99.90
12225;DHT22;6175;50.956;11.064;2022-12-07T02:57:27;2.10;99.90
12225;DHT22;6175;50.956;11.064;2022-12-07T03:00:04;2.10;99.90
12225;DHT22;6175;50.956;11.064;2022-12-07T03:02:39;2.10;99.90
12225;DHT22;6175;50.956;11.064;2022-12-07T03:05:20;2.10;99.90
12225;DHT22;6175;50.956;11.064;2022-12-07T03:07:57;2.10;99.90
12225;DHT22;6175;50.956;11.064;2022-12-07T03:10:32;2.20;99.90
12225;DHT22;6175;50.956;11.064;2022-12-07T03:13:04;2.10;99.90
12225;DHT22;6175;50.956;11.064;2022-12-07T03:15:40;2.20;99.90
12225;DHT22;6175;50.956;11.064;2022-12-07T03:18:11;2.20;99.90
12225;DHT22;6175;50.956;11.064;2022-12-07T03:20:40;2.20;99.90
12225;DHT22;6175;50.956;11.064;2022-12-07T03:23:10;2.20;99.90
12225;DHT22;6175;50.956;11.064;2022-12-07T03:25:40;2.20;99.90
12225;DHT22;6175;50.956;11.064;2022-12-07T03:28:10;2.30;99.90
12225;DHT22;6175;50.956;11.064;2022-12-07T03:30:45;2.30;99.90
12225;DHT22;6175;50.956;11.064;2022-12-07T03:33:17;2.30;99.90
12225;DHT22;6175;50.956;11.064;2022-12-07T03:35:50;2.30;99.90
12225;DHT22;6175;50.956;11.064;2022-12-07T03:38:23;2.30;99.90
12225;DHT22;6175;50.956;11.064;2022-12-07T03:40:57;2.30;99.90
12225;DHT22;6175;50.956;11.064;2022-12-07T03:43:25;2.30;99.90
12225;DHT22;6175;50.956;11.064;2022-12-07T03:46:01;2.30;99.90
12225;DHT22;6175;50.956;11.064;2022-12-07T03:48:36;2.30;99.90
12225;DHT22;6175;50.956;11.064;2022-12-07T03:51:09;2.20;99.90
12225;DHT22;6175;50.956;11.064;2022-12-07T03:53:42;2.30;99.90
12225;DHT22;6175;50.956;11.064;2022-12-07T03:56:11;2.10;99.90
12225;DHT22;6175;50.956;11.064;2022-12-07T03:58:38;2.20;99.90
12225;DHT22;6175;50.956;11.064;2022-12-07T04:01:08;2.20;99.90
12225;DHT22;6175;50.956;11.064;2022-12-07T04:08:30;2.20;99.90
12225;DHT22;6175;50.956;11.064;2022-12-07T04:18:20;2.30;99.90
12225;DHT22;6175;50.956;11.064;2022-12-07T04:35:32;2.20;99.90
12225;DHT22;6175;50.956;11.064;2022-12-07T04:40:28;2.40;99.90
12225;DHT22;6175;50.956;11.064;2022-12-07T04:47:49;2.40;99.90
12225;DHT22;6175;50.956;11.064;2022-12-07T04:52:45;2.50;99.90
12225;DHT22;6175;50.956;11.064;2022-12-07T05:00:07;2.50;99.90
12225;DHT22;6175;50.956;11.064;2022-12-07T05:09:58;2.60;99.90
12225;DHT22;6175;50.956;11.064;2022-12-07T05:19:46;2.60;99.90
12225;DHT22;6175;50.956;11.064;2022-12-07T05:27:09;2.60;99.90
12225;DHT22;6175;50.956;11.064;2022-12-07T05:29:36;2.70;99.90
12225;DHT22;6175;50.956;11.064;2022-12-07T05:32:03;2.70;99.90
12225;DHT22;6175;50.956;11.064;2022-12-07T05:39:25;2.70;99.90
12225;DHT22;6175;50.956;11.064;2022-12-07T05:44:38;2.80;99.90
12225;DHT22;6175;50.956;11.064;2022-12-07T05:52:01;2.80;99.90
12225;DHT22;6175;50.956;11.064;2022-12-07T05:54:28;2.70;99.90
12225;DHT22;6175;50.956;11.064;2022-12-07T05:56:55;2.80;99.90
12225;DHT22;6175;50.956;11.064;2022-12-07T05:59:22;2.80;99.90
12225;DHT22;6175;50.956;11.064;2022-12-07T06:01:50;2.70;99.90
12225;DHT22;6175;50.956;11.064;2022-12-07T06:04:17;2.70;99.90
12225;DHT22;6175;50.956;11.064;2022-12-07T06:06:45;2.80;99.90
12225;DHT22;6175;50.956;11.064;2022-12-07T06:09:12;2.70;99.90
12225;DHT22;6175;50.956;11.064;2022-12-07T06:11:39;2.80;99.90
12225;DHT22;6175;50.956;11.064;2022-12-07T06:14:24;2.90;99.90
12225;DHT22;6175;50.956;11.064;2022-12-07T06:16:52;2.80;99.90
12225;DHT22;6175;50.956;11.064;2022-12-07T06:19:19;2.80;99.90
12225;DHT22;6175;50.956;11.064;2022-12-07T06:24:14;2.80;99.90
12225;DHT22;6175;50.956;11.064;2022-12-07T06:26:43;2.70;99.90
12225;DHT22;6175;50.956;11.064;2022-12-07T06:29:11;2.70;99.90
12225;DHT22;6175;50.956;11.064;2022-12-07T06:34:09;2.60;99.90
12225;DHT22;6175;50.956;11.064;2022-12-07T06:36:37;2.60;99.90
12225;DHT22;6175;50.956;11.064;2022-12-07T06:39:04;2.50;99.90
12225;DHT22;6175;50.956;11.064;2022-12-07T06:41:33;2.40;99.90
12225;DHT22;6175;50.956;11.064;2022-12-07T06:46:27;2.40;99.90
12225;DHT22;6175;50.956;11.064;2022-12-07T06:48:54;2.40;99.90
12225;DHT22;6175;50.956;11.064;2022-12-07T06:51:23;2.40;99.90
12225;DHT22;6175;50.956;11.064;2022-12-07T07:01:13;2.50;99.90
12225;DHT22;6175;50.956;11.064;2022-12-07T07:06:08;2.60;99.90
12225;DHT22;6175;50.956;11.064;2022-12-07T07:08:38;2.60;99.90
12225;DHT22;6175;50.956;11.064;2022-12-07T07:11:06;2.60;99.90
12225;DHT22;6175;50.956;11.064;2022-12-07T07:18:28;2.70;99.90
12225;DHT22;6175;50.956;11.064;2022-12-07T07:20:55;2.60;99.90
12225;DHT22;6175;50.956;11.064;2022-12-07T07:25:51;2.60;99.90
12225;DHT22;6175;50.956;11.064;2022-12-07T07:28:18;2.60;99.90
12225;DHT22;6175;50.956;11.064;2022-12-07T07:30:45;2.70;99.90
12225;DHT22;6175;50.956;11.064;2022-12-07T07:35:40;2.70;99.90
12225;DHT22;6175;50.956;11.064;2022-12-07T07:38:08;2.70;99.90
12225;DHT22;6175;50.956;11.064;2022-12-07T07:40:35;2.70;99.90
12225;DHT22;6175;50.956;11.064;2022-12-07T07:43:04;2.70;99.90
12225;DHT22;6175;50.956;11.064;2022-12-07T07:47:58;2.70;99.90
12225;DHT22;6175;50.956;11.064;2022-12-07T08:00:16;2.80;99.90
12225;DHT22;6175;50.956;11.064;2022-12-07T08:02:43;2.80;99.90
12225;DHT22;6175;50.956;11.064;2022-12-07T08:05:12;2.80;99.90
12225;DHT22;6175;50.956;11.064;2022-12-07T08:10:10;2.80;99.90
12225;DHT22;6175;50.956;11.064;2022-12-07T08:15:28;2.80;99.90
12225;DHT22;6175;50.956;11.064;2022-12-07T08:30:12;2.80;99.90
12225;DHT22;6175;50.956;11.064;2022-12-07T08:32:41;2.80;99.90
12225;DHT22;6175;50.956;11.064;2022-12-07T08:35:08;2.80;99.90
12225;DHT22;6175;50.956;11.064;2022-12-07T08:37:35;2.80;99.90
12225;DHT22;6175;50.956;11.064;2022-12-07T08:45:04;3.00;99.90
12225;DHT22;6175;50.956;11.064;2022-12-07T08:47:32;3.00;99.90
12225;DHT22;6175;50.956;11.064;2022-12-07T08:50:02;3.10;99.90
12225;DHT22;6175;50.956;11.064;2022-12-07T08:54:57;3.20;99.90
12225;DHT22;6175;50.956;11.064;2022-12-07T08:57:26;3.20;99.90
12225;DHT22;6175;50.956;11.064;2022-12-07T09:02:21;3.30;99.90
12225;DHT22;6175;50.956;11.064;2022-12-07T09:07:17;3.40;99.90
12225;DHT22;6175;50.956;11.064;2022-12-07T09:14:39;3.40;99.90
12225;DHT22;6175;50.956;11.064;2022-12-07T09:17:08;3.50;99.90
12225;DHT22;6175;50.956;11.064;2022-12-07T09:22:03;3.50;99.90
12225;DHT22;6175;50.956;11.064;2022-12-07T09:24:31;3.50;99.90
12225;DHT22;6175;50.956;11.064;2022-12-07T09:29:25;3.60;99.90
12225;DHT22;6175;50.956;11.064;2022-12-07T09:31:52;3.70;99.90
12225;DHT22;6175;50.956;11.064;2022-12-07T09:41:44;3.80;99.90
12225;DHT22;6175;50.956;11.064;2022-12-07T09:44:13;3.70;99.90
12225;DHT22;6175;50.956;11.064;2022-12-07T09:46:43;3.70;99.90
12225;DHT22;6175;50.956;11.064;2022-12-07T09:49:12;3.70;99.90
12225;DHT22;6175;50.956;11.064;2022-12-07T09:54:12;3.60;99.90
12225;DHT22;6175;50.956;11.064;2022-12-07T09:56:39;3.60;99.90
12225;DHT22;6175;50.956;11.064;2022-12-07T09:59:15;3.60;99.90
12225;DHT22;6175;50.956;11.064;2022-12-07T10:01:44;3.60;99.90
12225;DHT22;6175;50.956;11.064;2022-12-07T10:04:14;3.60;99.90
12225;DHT22;6175;50.956;11.064;2022-12-07T10:06:42;3.60;99.90
12225;DHT22;6175;50.956;11.064;2022-12-07T10:11:58;3.80;99.90
12225;DHT22;6175;50.956;11.064;2022-12-07T10:14:27;3.80;99.90
12225;DHT22;6175;50.956;11.064;2022-12-07T10:16:55;3.90;99.90
12225;DHT22;6175;50.956;11.064;2022-12-07T10:19:24;4.00;99.90
12225;DHT22;6175;50.956;11.064;2022-12-07T10:22:04;4.00;99.90
12225;DHT22;6175;50.956;11.064;2022-12-07T10:24:31;4.10;99.90
12225;DHT22;6175;50.956;11.064;2022-12-07T10:26:58;4.10;99.90
12225;DHT22;6175;50.956;11.064;2022-12-07T10:29:31;4.10;99.90
12225;DHT22;6175;50.956;11.064;2022-12-07T10:32:00;4.10;99.90
12225;DHT22;6175;50.956;11.064;2022-12-07T10:34:29;4.20;99.90
12225;DHT22;6175;50.956;11.064;2022-12-07T10:37:15;4.20;99.90
12225;DHT22;6175;50.956;11.064;2022-12-07T10:39:44;4.10;99.90
12225;DHT22;6175;50.956;11.064;2022-12-07T10:42:22;4.10;99.90
12225;DHT22;6175;50.956;11.064;2022-12-07T10:45:08;4.00;99.90
12225;DHT22;6175;50.956;11.064;2022-12-07T10:47:39;4.00;99.90
12225;DHT22;6175;50.956;11.064;2022-12-07T10:50:45;4.00;99.90
12225;DHT22;6175;50.956;11.064;2022-12-07T10:53:25;4.10;99.90
12225;DHT22;6175;50.956;11.064;2022-12-07T10:56:25;4.00;99.90
12225;DHT22;6175;50.956;11.064;2022-12-07T10:59:09;4.00;99.90
12225;DHT22;6175;50.956;11.064;2022-12-07T11:01:45;4.00;99.90
12225;DHT22;6175;50.956;11.064;2022-12-07T11:04:24;4.00;99.90
12225;DHT22;6175;50.956;11.064;2022-12-07T11:07:00;4.10;99.90
12225;DHT22;6175;50.956;11.064;2022-12-07T11:09:51;4.20;99.90
12225;DHT22;6175;50.956;11.064;2022-12-07T11:12:29;4.20;99.90
12225;DHT22;6175;50.956;11.064;2022-12-07T11:15:02;4.40;99.90
12225;DHT22;6175;50.956;11.064;2022-12-07T11:17:40;4.40;99.90
12225;DHT22;6175;50.956;11.064;2022-12-07T11:20:20;4.50;99.90
12225;DHT22;6175;50.956;11.064;2022-12-07T11:22:54;4.40;99.90
12225;DHT22;6175;50.956;11.064;2022-12-07T11:25:26;4.40;99.90
12225;DHT22;6175;50.956;11.064;2022-12-07T11:28:06;4.40;99.90
12225;DHT22;6175;50.956;11.064;2022-12-07T11:30:42;4.40;99.90
12225;DHT22;6175;50.956;11.064;2022-12-07T11:33:20;4.50;99.90
12225;DHT22;6175;50.956;11.064;2022-12-07T11:35:59;4.40;99.90
12225;DHT22;6175;50.956;11.064;2022-12-07T11:38:37;4.50;99.90
12225;DHT22;6175;50.956;11.064;2022-12-07T11:41:06;4.50;99.90
12225;DHT22;6175;50.956;11.064;2022-12-07T11:43:55;4.50;99.90
12225;DHT22;6175;50.956;11.064;2022-12-07T11:46:26;4.60;99.90
12225;DHT22;6175;50.956;11.064;2022-12-07T11:49:03;4.50;99.90
12225;DHT22;6175;50.956;11.064;2022-12-07T11:51:36;4.50;99.90
12225;DHT22;6175;50.956;11.064;2022-12-07T11:54:12;4.50;99.90
12225;DHT22;6175;50.956;11.064;2022-12-07T11:59:12;4.30;99.90
12225;DHT22;6175;50.956;11.064;2022-12-07T12:01:51;4.40;99.90
12225;DHT22;6175;50.956;11.064;2022-12-07T12:04:38;4.50;99.90
12225;DHT22;6175;50.956;11.064;2022-12-07T12:07:07;4.60;99.90
12225;DHT22;6175;50.956;11.064;2022-12-07T12:09:36;4.50;99.90
12225;DHT22;6175;50.956;11.064;2022-12-07T12:18:22;4.40;99.90
12225;DHT22;6175;50.956;11.064;2022-12-07T12:20:56;4.30;99.90
12225;DHT22;6175;50.956;11.064;2022-12-07T12:23:29;4.30;99.90
12225;DHT22;6175;50.956;11.064;2022-12-07T12:26:05;4.30;99.90
12225;DHT22;6175;50.956;11.064;2022-12-07T12:28:38;5.10;99.90
12225;DHT22;6175;50.956;11.064;2022-12-07T12:31:09;4.30;99.90
12225;DHT22;6175;50.956;11.064;2022-12-07T12:33:37;4.40;99.90
12225;DHT22;6175;50.956;11.064;2022-12-07T12:36:23;4.40;99.90
12225;DHT22;6175;50.956;11.064;2022-12-07T12:38:51;4.50;99.90
12225;DHT22;6175;50.956;11.064;2022-12-07T12:42:06;4.40;99.90
12225;DHT22;6175;50.956;11.064;2022-12-07T12:45:16;4.40;99.90
12225;DHT22;6175;50.956;11.064;2022-12-07T12:48:09;4.40;99.90
12225;DHT22;6175;50.956;11.064;2022-12-07T12:51:37;4.20;99.90
12225;DHT22;6175;50.956;11.064;2022-12-07T12:54:10;4.10;99.90
12225;DHT22;6175;50.956;11.064;2022-12-07T12:56:42;4.10;99.90
12225;DHT22;6175;50.956;11.064;2022-12-07T12:59:28;4.00;99.90
12225;DHT22;6175;50.956;11.064;2022-12-07T13:02:07;4.10;99.90
12225;DHT22;6175;50.956;11.064;2022-12-07T13:04:51;4.00;99.90
12225;DHT22;6175;50.956;11.064;2022-12-07T13:07:52;4.00;99.90
12225;DHT22;6175;50.956;11.064;2022-12-07T13:10:35;3.90;99.90
12225;DHT22;6175;50.956;11.064;2022-12-07T13:13:08;4.00;99.90
12225;DHT22;6175;50.956;11.064;2022-12-07T13:15:54;3.90;99.90
12225;DHT22;6175;50.956;11.064;2022-12-07T13:18:34;3.90;99.90
12225;DHT22;6175;50.956;11.064;2022-12-07T13:23:33;3.90;99.90
12225;DHT22;6175;50.956;11.064;2022-12-07T13:26:12;3.90;99.90
12225;DHT22;6175;50.956;11.064;2022-12-07T13:28:42;3.90;99.90
12225;DHT22;6175;50.956;11.064;2022-12-07T13:31:26;4.00;99.90
12225;DHT22;6175;50.956;11.064;2022-12-07T13:33:57;3.70;99.90
12225;DHT22;6175;50.956;11.064;2022-12-07T13:36:25;4.00;99.90
12225;DHT22;6175;50.956;11.064;2022-12-07T13:38:57;4.00;99.90
12225;DHT22;6175;50.956;11.064;2022-12-07T13:43:59;4.00;99.90
12225;DHT22;6175;50.956;11.064;2022-12-07T13:46:40;4.00;99.90
12225;DHT22;6175;50.956;11.064;2022-12-07T13:49:20;4.00;99.90
12225;DHT22;6175;50.956;11.064;2022-12-07T13:51:48;4.00;99.90
12225;DHT22;6175;50.956;11.064;2022-12-07T13:54:15;4.00;99.90
12225;DHT22;6175;50.956;11.064;2022-12-07T13:59:14;4.90;99.90
12225;DHT22;6175;50.956;11.064;2022-12-07T14:01:45;4.00;99.90
12225;DHT22;6175;50.956;11.064;2022-12-07T14:04:31;4.00;99.90
12225;DHT22;6175;50.956;11.064;2022-12-07T14:07:00;5.20;99.90
12225;DHT22;6175;50.956;11.064;2022-12-07T14:09:28;3.90;99.90
12225;DHT22;6175;50.956;11.064;2022-12-07T14:11:57;3.90;99.90
12225;DHT22;6175;50.956;11.064;2022-12-07T14:14:26;3.90;99.90
12225;DHT22;6175;50.956;11.064;2022-12-07T14:17:12;3.80;99.90
12225;DHT22;6175;50.956;11.064;2022-12-07T14:19:49;3.80;99.90
12225;DHT22;6175;50.956;11.064;2022-12-07T14:22:30;3.80;99.90
12225;DHT22;6175;50.956;11.064;2022-12-07T14:25:19;3.80;99.90
12225;DHT22;6175;50.956;11.064;2022-12-07T14:27:54;3.80;99.90
12225;DHT22;6175;50.956;11.064;2022-12-07T14:30:24;3.80;99.90
12225;DHT22;6175;50.956;11.064;2022-12-07T14:32:56;3.80;99.90
12225;DHT22;6175;50.956;11.064;2022-12-07T14:35:24;3.70;99.90
12225;DHT22;6175;50.956;11.064;2022-12-07T14:37:51;3.50;99.90
12225;DHT22;6175;50.956;11.064;2022-12-07T14:40:20;3.60;99.90
12225;DHT22;6175;50.956;11.064;2022-12-07T14:42:51;3.50;99.90
12225;DHT22;6175;50.956;11.064;2022-12-07T14:45:21;3.50;99.90
12225;DHT22;6175;50.956;11.064;2022-12-07T14:47:49;3.40;99.90
12225;DHT22;6175;50.956;11.064;2022-12-07T14:50:19;3.40;99.90
12225;DHT22;6175;50.956;11.064;2022-12-07T14:52:48;3.30;99.90
12225;DHT22;6175;50.956;11.064;2022-12-07T14:55:23;3.30;99.90
12225;DHT22;6175;50.956;11.064;2022-12-07T15:00:18;3.20;99.90
12225;DHT22;6175;50.956;11.064;2022-12-07T15:02:46;3.20;99.90
12225;DHT22;6175;50.956;11.064;2022-12-07T15:07:42;3.20;99.90
12225;DHT22;6175;50.956;11.064;2022-12-07T15:10:15;3.20;99.90
12225;DHT22;6175;50.956;11.064;2022-12-07T15:12:43;3.10;99.90
12225;DHT22;6175;50.956;11.064;2022-12-07T15:20:07;3.10;99.90
12225;DHT22;6175;50.956;11.064;2022-12-07T15:25:04;5.40;99.90
12225;DHT22;6175;50.956;11.064;2022-12-07T15:34:54;3.20;99.90
12225;DHT22;6175;50.956;11.064;2022-12-07T15:37:21;3.10;99.90
12225;DHT22;6175;50.956;11.064;2022-12-07T15:42:16;3.20;99.90
12225;DHT22;6175;50.956;11.064;2022-12-07T15:44:43;3.20;99.90
12225;DHT22;6175;50.956;11.064;2022-12-07T15:49:55;3.30;99.90
12225;DHT22;6175;50.956;11.064;2022-12-07T15:54:49;3.20;99.90
12225;DHT22;6175;50.956;11.064;2022-12-07T15:57:18;3.00;99.90
12225;DHT22;6175;50.956;11.064;2022-12-07T15:59:44;3.20;99.90
12225;DHT22;6175;50.956;11.064;2022-12-07T16:04:39;3.00;99.90
12225;DHT22;6175;50.956;11.064;2022-12-07T16:07:06;3.10;99.90
12225;DHT22;6175;50.956;11.064;2022-12-07T16:09:32;3.10;99.90
12225;DHT22;6175;50.956;11.064;2022-12-07T16:11:59;3.10;99.90
12225;DHT22;6175;50.956;11.064;2022-12-07T16:14:28;3.10;99.90
12225;DHT22;6175;50.956;11.064;2022-12-07T16:24:17;5.20;99.90
12225;DHT22;6175;50.956;11.064;2022-12-07T16:26:44;3.00;99.90
12225;DHT22;6175;50.956;11.064;2022-12-07T16:29:12;4.40;99.90
12225;DHT22;6175;50.956;11.064;2022-12-07T16:31:41;3.00;99.90
12225;DHT22;6175;50.956;11.064;2022-12-07T16:34:08;1.70;99.90
12225;DHT22;6175;50.956;11.064;2022-12-07T16:36:35;3.00;99.90
12225;DHT22;6175;50.956;11.064;2022-12-07T16:39:04;2.90;99.90
12225;DHT22;6175;50.956;11.064;2022-12-07T16:41:31;2.90;99.90
12225;DHT22;6175;50.956;11.064;2022-12-07T16:44:02;2.90;99.90
12225;DHT22;6175;50.956;11.064;2022-12-07T16:46:31;2.90;99.90
12225;DHT22;6175;50.956;11.064;2022-12-07T16:48:59;2.90;99.90
12225;DHT22;6175;50.956;11.064;2022-12-07T16:58:48;2.80;99.90
12225;DHT22;6175;50.956;11.064;2022-12-07T17:01:17;2.10;99.90
12225;DHT22;6175;50.956;11.064;2022-12-07T17:03:45;2.80;99.90
12225;DHT22;6175;50.956;11.064;2022-12-07T17:06:16;2.80;99.90
12225;DHT22;6175;50.956;11.064;2022-12-07T17:11:12;2.80;99.90
12225;DHT22;6175;50.956;11.064;2022-12-07T17:13:38;2.80;99.90
12225;DHT22;6175;50.956;11.064;2022-12-07T17:21:19;2.80;99.90
12225;DHT22;6175;50.956;11.064;2022-12-07T17:23:47;2.70;99.90
12225;DHT22;6175;50.956;11.064;2022-12-07T17:26:16;2.80;99.90
12225;DHT22;6175;50.956;11.064;2022-12-07T17:28:43;2.70;99.90
12225;DHT22;6175;50.956;11.064;2022-12-07T17:31:12;2.80;99.90
12225;DHT22;6175;50.956;11.064;2022-12-07T17:36:10;2.80;99.90
12225;DHT22;6175;50.956;11.064;2022-12-07T17:38:39;2.80;99.90
12225;DHT22;6175;50.956;11.064;2022-12-07T17:41:11;2.80;99.90
12225;DHT22;6175;50.956;11.064;2022-12-07T17:46:26;2.70;99.90
12225;DHT22;6175;50.956;11.064;2022-12-07T17:54:07;2.60;99.90
12225;DHT22;6175;50.956;11.064;2022-12-07T17:59:02;2.60;99.90
12225;DHT22;6175;50.956;11.064;2022-12-07T18:03:57;2.60;99.90
12225;DHT22;6175;50.956;11.064;2022-12-07T18:11:20;5.10;99.90
12225;DHT22;6175;50.956;11.064;2022-12-07T18:16:16;2.60;99.90
12225;DHT22;6175;50.956;11.064;2022-12-07T18:18:44;2.70;99.90
12225;DHT22;6175;50.956;11.064;2022-12-07T18:21:13;2.70;99.90
12225;DHT22;6175;50.956;11.064;2022-12-07T18:23:41;2.60;99.90
12225;DHT22;6175;50.956;11.064;2022-12-07T18:28:39;2.70;99.90
12225;DHT22;6175;50.956;11.064;2022-12-07T18:36:02;2.80;99.90
12225;DHT22;6175;50.956;11.064;2022-12-07T18:38:30;2.70;99.90
12225;DHT22;6175;50.956;11.064;2022-12-07T18:40:58;2.70;99.90
12225;DHT22;6175;50.956;11.064;2022-12-07T18:43:25;2.70;99.90
12225;DHT22;6175;50.956;11.064;2022-12-07T18:45:53;6.10;99.90
12225;DHT22;6175;50.956;11.064;2022-12-07T18:48:21;2.70;99.90
12225;DHT22;6175;50.956;11.064;2022-12-07T18:50:59;2.70;99.90
12225;DHT22;6175;50.956;11.064;2022-12-07T18:56:00;2.60;99.90
12225;DHT22;6175;50.956;11.064;2022-12-07T19:00:56;2.70;99.90
12225;DHT22;6175;50.956;11.064;2022-12-07T19:03:24;2.60;99.90
12225;DHT22;6175;50.956;11.064;2022-12-07T19:05:51;2.70;99.90
12225;DHT22;6175;50.956;11.064;2022-12-07T19:10:48;2.60;99.90
12225;DHT22;6175;50.956;11.064;2022-12-07T19:13:14;2.60;99.90
12225;DHT22;6175;50.956;11.064;2022-12-07T19:15:41;2.60;99.90
12225;DHT22;6175;50.956;11.064;2022-12-07T19:18:10;2.60;99.90
12225;DHT22;6175;50.956;11.064;2022-12-07T19:20:37;2.60;99.90
12225;DHT22;6175;50.956;11.064;2022-12-07T19:23:04;2.60;99.90
12225;DHT22;6175;50.956;11.064;2022-12-07T19:25:31;2.60;99.90
12225;DHT22;6175;50.956;11.064;2022-12-07T19:35:29;2.60;99.90
12225;DHT22;6175;50.956;11.064;2022-12-07T19:40:25;2.50;99.90
12225;DHT22;6175;50.956;11.064;2022-12-07T19:52:42;2.60;99.90
12225;DHT22;6175;50.956;11.064;2022-12-07T19:55:09;2.60;99.90
12225;DHT22;6175;50.956;11.064;2022-12-07T20:00:04;2.60;99.90
12225;DHT22;6175;50.956;11.064;2022-12-07T20:07:27;2.60;99.90
12225;DHT22;6175;50.956;11.064;2022-12-07T20:09:55;1.60;99.90
12225;DHT22;6175;50.956;11.064;2022-12-07T20:12:22;2.60;99.90
12225;DHT22;6175;50.956;11.064;2022-12-07T20:15:07;2.60;99.90
12225;DHT22;6175;50.956;11.064;2022-12-07T20:24:57;2.70;99.90
12225;DHT22;6175;50.956;11.064;2022-12-07T20:27:24;2.70;99.90
12225;DHT22;6175;50.956;11.064;2022-12-07T20:29:51;2.70;99.90
12225;DHT22;6175;50.956;11.064;2022-12-07T20:34:45;2.70;99.90
12225;DHT22;6175;50.956;11.064;2022-12-07T20:42:09;2.70;99.90
12225;DHT22;6175;50.956;11.064;2022-12-07T20:47:22;2.80;99.90
12225;DHT22;6175;50.956;11.064;2022-12-07T20:49:50;2.60;99.90
12225;DHT22;6175;50.956;11.064;2022-12-07T20:57:14;2.70;99.90
12225;DHT22;6175;50.956;11.064;2022-12-07T21:02:10;2.70;99.90
12225;DHT22;6175;50.956;11.064;2022-12-07T21:09:33;2.70;99.90
12225;DHT22;6175;50.956;11.064;2022-12-07T21:12:00;2.60;99.90
12225;DHT22;6175;50.956;11.064;2022-12-07T21:14:29;2.60;99.90
12225;DHT22;6175;50.956;11.064;2022-12-07T21:29:13;2.60;99.90
12225;DHT22;6175;50.956;11.064;2022-12-07T21:31:42;2.60;99.90
12225;DHT22;6175;50.956;11.064;2022-12-07T21:39:04;2.60;99.90
12225;DHT22;6175;50.956;11.064;2022-12-07T21:41:33;2.50;99.90
12225;DHT22;6175;50.956;11.064;2022-12-07T21:44:01;2.60;99.90
12225;DHT22;6175;50.956;11.064;2022-12-07T21:49:01;4.00;99.90
12225;DHT22;6175;50.956;11.064;2022-12-07T21:51:29;2.60;99.90
12225;DHT22;6175;50.956;11.064;2022-12-07T21:53:57;2.60;99.90
12225;DHT22;6175;50.956;11.064;2022-12-07T21:56:27;2.50;99.90
12225;DHT22;6175;50.956;11.064;2022-12-07T21:58:58;2.50;99.90
12225;DHT22;6175;50.956;11.064;2022-12-07T22:01:26;2.50;99.90
12225;DHT22;6175;50.956;11.064;2022-12-07T22:03:54;2.50;99.90
12225;DHT22;6175;50.956;11.064;2022-12-07T22:06:24;2.40;99.90
12225;DHT22;6175;50.956;11.064;2022-12-07T22:08:52;2.40;99.90
12225;DHT22;6175;50.956;11.064;2022-12-07T22:11:19;2.50;99.90
12225;DHT22;6175;50.956;11.064;2022-12-07T22:13:47;2.40;99.90
12225;DHT22;6175;50.956;11.064;2022-12-07T22:16:32;2.40;99.90
12225;DHT22;6175;50.956;11.064;2022-12-07T22:18:59;2.40;99.90
12225;DHT22;6175;50.956;11.064;2022-12-07T22:21:28;2.30;99.90
12225;DHT22;6175;50.956;11.064;2022-12-07T22:31:18;2.40;99.90
12225;DHT22;6175;50.956;11.064;2022-12-07T22:33:46;2.40;99.90
12225;DHT22;6175;50.956;11.064;2022-12-07T22:36:13;2.50;99.90
12225;DHT22;6175;50.956;11.064;2022-12-07T22:38:42;2.40;99.90
12225;DHT22;6175;50.956;11.064;2022-12-07T22:41:10;2.40;99.90
12225;DHT22;6175;50.956;11.064;2022-12-07T22:43:38;2.40;99.90
12225;DHT22;6175;50.956;11.064;2022-12-07T22:46:05;1.80;99.90
12225;DHT22;6175;50.956;11.064;2022-12-07T22:48:32;2.40;99.90
12225;DHT22;6175;50.956;11.064;2022-12-07T22:51:00;2.20;99.90
12225;DHT22;6175;50.956;11.064;2022-12-07T22:53:27;2.40;99.90
12225;DHT22;6175;50.956;11.064;2022-12-07T22:55:55;2.30;99.90
12225;DHT22;6175;50.956;11.064;2022-12-07T23:05:45;2.30;99.90
12225;DHT22;6175;50.956;11.064;2022-12-07T23:10:41;2.30;99.90